createdAt,value
2017-07-24T00:00:18.897Z,49.60
2017-07-24T00:02:45.949Z,49.30
2017-07-24T00:05:13.761Z,49.20
2017-07-24T00:07:40.794Z,49.10
2017-07-24T00:10:07.947Z,49.20
2017-07-24T00:12:34.992Z,49.20
2017-07-24T00:15:02.053Z,49.10
2017-07-24T00:17:29.099Z,48.90
2017-07-24T00:19:56.148Z,49.00
2017-07-24T00:22:23.180Z,48.90
2017-07-24T00:24:50.207Z,49.00
2017-07-24T00:27:18.017Z,48.90
2017-07-24T00:29:45.049Z,49.20
2017-07-24T00:32:12.067Z,48.80
2017-07-24T00:34:39.872Z,49.60
2017-07-24T00:37:06.908Z,48.90
2017-07-24T00:39:33.948Z,49.00
2017-07-24T00:42:01.776Z,48.90
2017-07-24T00:44:28.814Z,48.90
2017-07-24T00:46:55.851Z,48.40
2017-07-24T00:49:22.898Z,47.70
2017-07-24T00:51:49.930Z,48.10
2017-07-24T00:54:16.961Z,46.50
2017-07-24T00:56:43.992Z,48.10
2017-07-24T00:59:11.796Z,46.40
2017-07-24T01:01:38.819Z,46.50
2017-07-24T01:04:06.649Z,47.00
2017-07-24T01:06:33.687Z,46.90
2017-07-24T01:09:00.725Z,46.90
2017-07-24T01:11:27.768Z,46.90
2017-07-24T01:13:54.801Z,47.80
2017-07-24T01:16:21.831Z,48.50
2017-07-24T01:18:48.876Z,49.30
2017-07-24T01:21:16.669Z,49.20
2017-07-24T01:23:43.705Z,49.10
2017-07-24T01:26:10.754Z,49.30
2017-07-24T01:28:37.789Z,49.50
2017-07-24T01:31:04.828Z,49.80
2017-07-24T01:33:32.631Z,50.10
2017-07-24T01:35:59.672Z,50.10
2017-07-24T01:38:26.714Z,50.00
2017-07-24T01:40:53.765Z,50.20
2017-07-24T01:43:20.793Z,50.30
2017-07-24T01:45:48.588Z,50.60
2017-07-24T01:48:15.629Z,50.50
2017-07-24T01:50:42.671Z,50.60
2017-07-24T01:53:09.714Z,51.10
2017-07-24T01:55:36.751Z,50.80
2017-07-24T01:58:04.562Z,50.60
2017-07-24T02:00:31.597Z,50.50
2017-07-24T02:02:58.650Z,51.00
2017-07-24T02:05:25.669Z,51.30
2017-07-24T02:07:54.073Z,51.40
2017-07-24T02:10:21.120Z,51.40
2017-07-24T02:12:48.210Z,51.40
2017-07-24T02:15:15.252Z,51.00
2017-07-24T02:17:42.289Z,51.00
2017-07-24T02:20:09.521Z,51.20
2017-07-24T02:22:36.813Z,51.10
2017-07-24T02:25:03.924Z,50.90
2017-07-24T02:27:30.957Z,50.90
2017-07-24T02:29:57.994Z,50.50
2017-07-24T02:32:25.045Z,51.00
2017-07-24T02:34:53.677Z,51.00
2017-07-24T02:37:20.940Z,50.40
2017-07-24T02:39:48.055Z,50.40
2017-07-24T02:42:15.351Z,50.10
2017-07-24T02:44:42.590Z,50.20
2017-07-24T02:47:11.151Z,50.10
2017-07-24T02:49:38.185Z,50.00
2017-07-24T02:52:05.207Z,50.10
2017-07-24T02:54:34.325Z,49.90
2017-07-24T02:57:02.226Z,50.20
2017-07-24T02:59:29.363Z,50.10
2017-07-24T03:01:56.412Z,50.10
2017-07-24T03:04:23.450Z,50.30
2017-07-24T03:06:50.485Z,50.10
2017-07-24T03:09:17.534Z,50.10
2017-07-24T03:11:44.667Z,49.90
2017-07-24T03:14:12.461Z,50.40
2017-07-24T03:16:39.500Z,50.00
2017-07-24T03:19:06.536Z,49.80
2017-07-24T03:21:34.351Z,50.10
2017-07-24T03:24:01.402Z,50.00
2017-07-24T03:26:28.432Z,50.30
2017-07-24T03:28:55.462Z,50.00
2017-07-24T03:31:22.511Z,50.30
2017-07-24T03:33:49.557Z,50.20
2017-07-24T03:36:16.598Z,50.00
2017-07-24T03:38:44.403Z,49.90
2017-07-24T03:41:11.437Z,49.80
2017-07-24T03:43:38.464Z,50.10
2017-07-24T03:46:06.272Z,49.60
2017-07-24T03:48:33.296Z,49.50
2017-07-24T03:51:00.333Z,49.20
2017-07-24T03:53:27.377Z,49.40
2017-07-24T03:55:55.168Z,48.70
2017-07-24T03:58:22.202Z,48.60
2017-07-24T04:00:49.235Z,48.60
2017-07-24T04:03:17.030Z,48.60
2017-07-24T04:05:44.061Z,48.50
2017-07-24T04:08:11.100Z,48.40
2017-07-24T04:10:38.896Z,48.50
2017-07-24T04:13:05.931Z,48.40
2017-07-24T04:15:33.021Z,48.90
2017-07-24T04:18:00.043Z,48.90
2017-07-24T04:20:27.084Z,49.20
2017-07-24T04:22:54.136Z,49.40
2017-07-24T04:25:21.169Z,49.60
2017-07-24T04:27:48.197Z,49.90
2017-07-24T04:30:16.011Z,50.40
2017-07-24T04:32:43.048Z,49.90
2017-07-24T04:35:10.078Z,50.00
2017-07-24T04:37:37.124Z,50.20
2017-07-24T04:40:04.157Z,49.90
2017-07-24T04:42:31.945Z,50.00
2017-07-24T04:44:58.989Z,50.10
2017-07-24T04:47:26.025Z,50.10
2017-07-24T04:49:53.821Z,50.30
2017-07-24T04:52:20.865Z,50.20
2017-07-24T04:54:47.901Z,50.20
2017-07-24T04:57:14.933Z,50.30
2017-07-24T04:59:42.750Z,50.50
2017-07-24T05:02:09.790Z,50.40
2017-07-24T05:04:36.825Z,50.70
2017-07-24T05:07:03.860Z,51.00
2017-07-24T05:09:30.898Z,51.10
2017-07-24T05:11:58.688Z,51.20
2017-07-24T05:14:25.729Z,51.10
2017-07-24T05:16:52.766Z,51.40
2017-07-24T05:19:19.802Z,51.30
2017-07-24T05:21:47.620Z,51.50
2017-07-24T05:24:14.749Z,51.50
2017-07-24T05:26:41.909Z,51.70
2017-07-24T05:29:08.962Z,51.70
2017-07-24T05:31:35.983Z,51.50
2017-07-24T05:34:03.145Z,51.50
2017-07-24T05:36:30.193Z,51.50
2017-07-24T05:38:57.240Z,51.50
2017-07-24T05:41:24.282Z,51.50
2017-07-24T05:43:51.328Z,51.70
2017-07-24T05:46:18.379Z,51.70
2017-07-24T05:48:45.422Z,51.80
2017-07-24T05:51:12.472Z,51.90
2017-07-24T05:53:39.518Z,52.00
2017-07-24T05:56:07.320Z,51.80
2017-07-24T05:58:34.378Z,51.70
2017-07-24T06:01:01.403Z,51.90
2017-07-24T06:03:28.439Z,51.90
2017-07-24T06:05:56.633Z,51.90
2017-07-24T06:08:23.676Z,51.70
2017-07-24T06:10:50.716Z,51.90
2017-07-24T06:13:17.751Z,52.00
2017-07-24T06:15:44.798Z,52.10
2017-07-24T06:18:11.833Z,52.30
2017-07-24T06:20:39.653Z,52.50
2017-07-24T06:23:06.685Z,52.00
2017-07-24T06:25:33.726Z,51.90
2017-07-24T06:28:00.780Z,51.90
2017-07-24T06:30:27.810Z,52.00
2017-07-24T06:32:54.837Z,53.40
2017-07-24T06:35:21.885Z,54.90
2017-07-24T06:37:48.915Z,55.80
2017-07-24T06:40:16.018Z,55.10
2017-07-24T06:42:44.017Z,55.20
2017-07-24T06:45:11.054Z,53.70
2017-07-24T06:47:38.075Z,54.10
2017-07-24T06:50:05.129Z,54.10
2017-07-24T06:52:32.158Z,54.80
2017-07-24T06:54:59.970Z,56.70
2017-07-24T06:57:27.053Z,56.70
2017-07-24T06:59:54.086Z,55.70
2017-07-24T07:02:21.120Z,55.30
2017-07-24T07:04:49.816Z,54.90
2017-07-24T07:07:16.849Z,54.90
2017-07-24T07:09:43.989Z,55.40
2017-07-24T07:12:11.037Z,55.80
2017-07-24T07:14:38.076Z,56.20
2017-07-24T07:17:05.110Z,55.50
2017-07-24T07:19:33.197Z,56.50
2017-07-24T07:22:00.238Z,56.50
2017-07-24T07:24:27.272Z,56.70
2017-07-24T07:26:55.091Z,56.80
2017-07-24T07:29:22.129Z,56.70
2017-07-24T07:31:49.151Z,56.60
2017-07-24T07:34:16.206Z,56.90
2017-07-24T07:36:43.237Z,56.40
2017-07-24T07:39:10.287Z,55.40
2017-07-24T07:41:38.101Z,54.60
2017-07-24T07:44:05.139Z,54.60
2017-07-24T07:46:32.182Z,54.40
2017-07-24T07:48:59.240Z,54.30
2017-07-24T07:51:26.260Z,54.20
2017-07-24T07:53:53.296Z,54.00
2017-07-24T07:56:20.370Z,54.10
2017-07-24T07:58:47.403Z,53.90
2017-07-24T08:01:14.445Z,53.70
2017-07-24T08:06:17.921Z,53.40
2017-07-24T08:08:44.980Z,53.20
2017-07-24T08:11:12.018Z,53.20
2017-07-24T08:13:39.059Z,53.40
2017-07-24T08:16:06.117Z,52.90
2017-07-24T08:18:33.167Z,52.80
2017-07-24T08:21:00.205Z,52.50
2017-07-24T08:23:27.253Z,52.50
2017-07-24T08:25:54.285Z,52.40
2017-07-24T08:28:21.321Z,52.40
2017-07-24T08:30:48.372Z,51.90
2017-07-24T08:33:15.396Z,52.20
2017-07-24T08:35:42.438Z,52.10
2017-07-24T08:38:10.236Z,52.20
2017-07-24T08:40:37.261Z,52.10
2017-07-24T08:43:04.284Z,52.20
2017-07-24T08:45:31.333Z,52.10
2017-07-24T08:47:59.128Z,51.80
2017-07-24T08:50:26.147Z,51.60
2017-07-24T08:52:53.203Z,51.90
2017-07-24T08:55:21.002Z,51.80
2017-07-24T08:57:48.042Z,51.50
2017-07-24T09:00:15.112Z,51.60
2017-07-24T09:02:42.157Z,51.60
2017-07-24T09:05:09.404Z,51.70
2017-07-24T09:07:36.446Z,51.30
2017-07-24T09:10:03.481Z,51.70
2017-07-24T09:12:30.513Z,51.60
2017-07-24T09:14:58.319Z,51.50
2017-07-24T09:17:25.349Z,51.40
2017-07-24T09:19:52.371Z,51.20
2017-07-24T09:22:20.180Z,51.40
2017-07-24T09:24:47.217Z,51.30
2017-07-24T09:27:14.249Z,51.40
2017-07-24T09:29:41.288Z,51.50
2017-07-24T09:32:09.080Z,51.90
2017-07-24T09:34:36.099Z,51.20
2017-07-24T09:37:03.921Z,51.80
2017-07-24T09:39:30.951Z,50.90
2017-07-24T09:41:57.980Z,50.40
2017-07-24T09:44:25.013Z,50.20
2017-07-24T09:46:52.808Z,50.50
2017-07-24T09:49:19.841Z,50.20
2017-07-24T09:51:46.892Z,50.10
2017-07-24T09:54:13.928Z,50.00
2017-07-24T09:56:41.720Z,48.50
2017-07-24T09:59:08.766Z,48.50
2017-07-24T10:01:35.792Z,48.60
2017-07-24T10:04:03.587Z,47.20
2017-07-24T10:06:30.639Z,47.10
2017-07-24T10:08:57.674Z,46.80
2017-07-24T10:11:24.700Z,44.90
2017-07-24T10:13:52.499Z,44.70
2017-07-24T10:16:19.548Z,44.50
2017-07-24T10:18:46.571Z,46.20
2017-07-24T10:21:14.381Z,46.00
2017-07-24T10:23:41.399Z,46.00
2017-07-24T10:26:08.433Z,45.60
2017-07-24T10:28:36.235Z,43.70
2017-07-24T10:31:03.282Z,43.70
2017-07-24T10:33:30.322Z,42.90
2017-07-24T10:35:57.386Z,42.00
2017-07-24T10:38:24.423Z,42.10
2017-07-24T10:40:51.449Z,40.90
2017-07-24T10:43:18.488Z,42.10
2017-07-24T10:45:46.289Z,40.60
2017-07-24T10:48:13.332Z,40.50
2017-07-24T10:50:40.365Z,41.00
2017-07-24T10:53:07.388Z,41.50
2017-07-24T10:55:35.193Z,40.90
2017-07-24T10:58:02.239Z,41.00
2017-07-24T11:00:29.272Z,39.00
2017-07-24T11:02:56.304Z,41.10
2017-07-24T11:05:24.117Z,41.30
2017-07-24T11:07:51.153Z,41.20
2017-07-24T11:10:18.185Z,40.30
2017-07-24T11:12:45.238Z,40.20
2017-07-24T11:15:12.277Z,41.20
2017-07-24T11:17:39.314Z,40.10
2017-07-24T11:20:07.129Z,41.80
2017-07-24T11:22:34.164Z,41.80
2017-07-24T11:25:01.200Z,42.30
2017-07-24T11:27:28.259Z,42.60
2017-07-24T11:29:55.292Z,42.70
2017-07-24T11:32:22.329Z,43.20
2017-07-24T11:34:50.139Z,42.60
2017-07-24T11:37:17.178Z,42.60
2017-07-24T11:39:44.320Z,42.80
2017-07-24T11:42:11.370Z,42.50
2017-07-24T11:44:38.407Z,42.60
2017-07-24T11:47:05.436Z,42.60
2017-07-24T11:49:33.249Z,41.40
2017-07-24T11:52:00.284Z,41.30
2017-07-24T11:54:27.324Z,41.90
2017-07-24T11:56:54.364Z,42.10
2017-07-24T11:59:21.401Z,42.50
2017-07-24T12:01:49.204Z,42.60
2017-07-24T12:04:16.249Z,42.60
2017-07-24T12:06:43.282Z,42.10
2017-07-24T12:09:10.308Z,42.00
2017-07-24T12:11:38.205Z,42.20
2017-07-24T12:14:05.236Z,42.20
2017-07-24T12:16:32.269Z,41.70
2017-07-24T12:19:00.077Z,39.60
2017-07-24T12:21:27.114Z,39.40
2017-07-24T12:23:54.144Z,39.60
2017-07-24T12:26:21.205Z,38.90
2017-07-24T12:28:48.237Z,38.30
2017-07-24T12:31:16.042Z,39.50
2017-07-24T12:33:43.087Z,39.50
2017-07-24T12:36:10.125Z,40.10
2017-07-24T12:38:37.162Z,40.10
2017-07-24T12:41:04.218Z,39.40
2017-07-24T12:43:31.247Z,39.50
2017-07-24T12:45:58.276Z,39.80
2017-07-24T12:48:26.088Z,39.50
2017-07-24T12:50:53.116Z,39.40
2017-07-24T12:53:20.137Z,39.80
2017-07-24T12:55:47.959Z,40.20
2017-07-24T12:58:15.002Z,39.50
2017-07-24T13:00:42.147Z,39.40
2017-07-24T13:03:09.197Z,39.50
2017-07-24T13:05:36.234Z,39.80
2017-07-24T13:08:03.273Z,39.40
2017-07-24T13:10:30.320Z,42.70
2017-07-24T13:12:57.369Z,44.50
2017-07-24T13:15:24.417Z,46.40
2017-07-24T13:17:51.461Z,46.90
2017-07-24T13:20:19.252Z,48.40
2017-07-24T13:22:46.284Z,48.40
2017-07-24T13:25:13.339Z,48.70
2017-07-24T13:27:40.411Z,48.60
2017-07-24T13:30:07.444Z,49.10
2017-07-24T13:32:34.491Z,49.70
2017-07-24T13:35:01.517Z,49.80
2017-07-24T13:37:29.317Z,50.60
2017-07-24T13:39:57.482Z,50.60
2017-07-24T13:42:25.889Z,50.90
2017-07-24T13:44:53.470Z,50.40
2017-07-24T13:47:21.599Z,50.20
2017-07-24T13:49:49.028Z,49.50
2017-07-24T13:52:17.129Z,50.20
2017-07-24T13:54:44.705Z,50.10
2017-07-24T13:57:12.080Z,49.50
2017-07-24T13:59:39.300Z,49.60
2017-07-24T14:02:06.766Z,49.50
2017-07-24T14:04:36.246Z,49.10
2017-07-24T14:07:04.974Z,48.20
2017-07-24T14:09:33.101Z,48.80
2017-07-24T14:12:01.526Z,49.20
2017-07-24T14:14:29.124Z,48.50
2017-07-24T14:16:56.443Z,48.00
2017-07-24T14:19:24.998Z,47.90
2017-07-24T14:21:52.468Z,47.50
2017-07-24T14:24:20.282Z,48.20
2017-07-24T14:26:48.212Z,46.30
2017-07-24T14:29:16.177Z,46.50
2017-07-24T14:31:44.503Z,46.60
2017-07-24T14:34:12.074Z,46.50
2017-07-24T14:36:39.998Z,44.70
2017-07-24T14:39:07.605Z,44.70
2017-07-24T14:41:35.842Z,45.90
2017-07-24T14:44:02.957Z,45.80
2017-07-24T14:46:30.497Z,45.10
2017-07-24T14:48:58.742Z,46.00
2017-07-24T14:51:26.721Z,45.30
2017-07-24T14:53:54.234Z,45.10
2017-07-24T14:56:21.591Z,45.20
2017-07-24T14:58:49.772Z,45.10
2017-07-24T15:01:17.124Z,45.30
2017-07-24T15:03:44.477Z,45.10
2017-07-24T15:06:11.938Z,44.70
2017-07-24T15:08:39.291Z,45.10
2017-07-24T15:11:06.962Z,44.80
2017-07-24T15:13:34.621Z,44.90
2017-07-24T15:16:02.093Z,44.80
2017-07-24T15:18:29.413Z,45.30
2017-07-24T15:20:57.611Z,45.20
2017-07-24T15:23:24.962Z,44.40
2017-07-24T15:25:52.868Z,44.50
2017-07-24T15:28:20.503Z,44.60
2017-07-24T15:30:47.852Z,44.50
2017-07-24T15:33:15.110Z,44.30
2017-07-24T15:35:42.454Z,44.40
2017-07-24T15:38:09.941Z,44.80
2017-07-24T15:40:37.487Z,45.40
2017-07-24T15:43:04.872Z,45.50
2017-07-24T15:45:32.837Z,45.60
2017-07-24T15:48:00.361Z,45.40
2017-07-24T15:50:28.531Z,44.80
2017-07-24T15:52:56.231Z,44.90
2017-07-24T15:55:24.685Z,45.20
2017-07-24T15:57:53.971Z,45.50
2017-07-24T16:00:22.424Z,45.50
2017-07-24T16:02:50.475Z,45.60
2017-07-24T16:05:17.510Z,45.60
2017-07-24T16:07:44.557Z,45.30
2017-07-24T16:10:11.591Z,44.80
2017-07-24T16:12:38.629Z,44.90
2017-07-24T16:15:05.672Z,44.30
2017-07-24T16:17:32.699Z,44.30
2017-07-24T16:20:00.491Z,44.90
2017-07-24T16:22:27.540Z,44.80
2017-07-24T16:24:54.567Z,44.50
2017-07-24T16:27:21.595Z,44.90
2017-07-24T16:29:49.414Z,45.00
2017-07-24T16:32:16.440Z,45.00
2017-07-24T16:34:43.477Z,45.80
2017-07-24T16:37:11.287Z,45.50
2017-07-24T16:39:38.320Z,45.40
2017-07-24T16:42:05.349Z,45.90
2017-07-24T16:44:32.398Z,46.40
2017-07-24T16:46:59.434Z,46.20
2017-07-24T16:49:27.229Z,46.60
2017-07-24T16:51:54.276Z,46.50
2017-07-24T16:54:21.427Z,46.50
2017-07-24T16:56:48.469Z,46.20
2017-07-24T16:59:15.509Z,46.60
2017-07-24T17:01:42.545Z,46.40
2017-07-24T17:04:09.584Z,46.50
2017-07-24T17:06:37.399Z,46.40
2017-07-24T17:09:04.433Z,46.30
2017-07-24T17:11:31.460Z,46.40
2017-07-24T17:13:58.521Z,46.60
2017-07-24T17:16:25.546Z,46.60
2017-07-24T17:18:53.360Z,47.20
2017-07-24T17:21:20.413Z,47.00
2017-07-24T17:23:47.440Z,47.40
2017-07-24T17:26:14.468Z,48.00
2017-07-24T17:28:41.520Z,47.40
2017-07-24T17:31:08.570Z,47.00
2017-07-24T17:33:35.593Z,47.30
2017-07-24T17:36:02.650Z,47.30
2017-07-24T17:38:30.457Z,48.20
2017-07-24T17:40:57.485Z,47.50
2017-07-24T17:43:24.546Z,47.70
2017-07-24T17:45:51.588Z,48.10
2017-07-24T17:48:18.614Z,48.40
2017-07-24T17:50:46.443Z,48.80
2017-07-24T17:53:13.499Z,48.70
2017-07-24T17:55:40.528Z,48.90
2017-07-24T17:58:07.588Z,49.10
2017-07-24T18:00:34.622Z,49.20
2017-07-24T18:03:01.658Z,49.40
2017-07-24T18:05:28.719Z,49.80
2017-07-24T18:07:55.854Z,49.70
2017-07-24T18:10:22.885Z,50.00
2017-07-24T18:12:49.946Z,50.40
2017-07-24T18:15:16.980Z,50.20
2017-07-24T18:17:44.027Z,50.20
2017-07-24T18:20:11.072Z,50.20
2017-07-24T18:22:38.876Z,50.60
2017-07-24T18:25:05.906Z,50.50
2017-07-24T18:27:32.949Z,50.90
2017-07-24T18:29:59.981Z,51.40
2017-07-24T18:32:27.784Z,51.50
2017-07-24T18:34:54.914Z,51.40
2017-07-24T18:37:21.934Z,51.30
2017-07-24T18:39:49.740Z,52.80
2017-07-24T18:42:16.787Z,52.70
2017-07-24T18:44:43.828Z,52.50
2017-07-24T18:47:10.884Z,52.90
2017-07-24T18:49:37.935Z,52.70
2017-07-24T18:52:04.968Z,52.60
2017-07-24T18:54:31.997Z,52.50
2017-07-24T18:56:59.804Z,53.20
2017-07-24T18:59:26.843Z,53.10
2017-07-24T19:01:53.877Z,52.40
2017-07-24T19:04:20.927Z,53.20
2017-07-24T19:06:47.961Z,52.60
2017-07-24T19:09:15.761Z,55.20
2017-07-24T19:11:42.805Z,55.10
2017-07-24T19:14:09.851Z,55.60
2017-07-24T19:16:36.889Z,55.30
2017-07-24T19:19:03.936Z,55.20
2017-07-24T19:21:30.967Z,53.90
2017-07-24T19:23:58.751Z,52.90
2017-07-24T19:26:25.814Z,52.90
2017-07-24T19:28:52.850Z,52.40
2017-07-24T19:31:19.885Z,52.20
2017-07-24T19:33:47.701Z,52.00
2017-07-24T19:36:14.732Z,52.00
2017-07-24T19:38:41.872Z,51.80
2017-07-24T19:41:08.924Z,51.70
2017-07-24T19:43:35.961Z,51.50
2017-07-24T19:46:02.992Z,51.60
2017-07-24T19:48:30.808Z,51.60
2017-07-24T19:50:59.499Z,51.60
2017-07-24T19:53:26.535Z,51.40
2017-07-24T19:55:53.575Z,52.30
2017-07-24T19:58:20.604Z,52.60
2017-07-24T20:00:47.634Z,52.30
2017-07-24T20:03:15.455Z,52.40
2017-07-24T20:05:42.484Z,52.40
2017-07-24T20:08:09.510Z,52.90
2017-07-24T20:10:36.573Z,53.30
2017-07-24T20:13:03.606Z,52.90
2017-07-24T20:15:30.636Z,52.90
2017-07-24T20:17:58.453Z,54.60
2017-07-24T20:20:25.489Z,54.40
2017-07-24T20:22:52.512Z,54.80
2017-07-24T20:25:19.561Z,54.90
2017-07-24T20:27:47.354Z,55.00
2017-07-24T20:30:14.389Z,55.00
2017-07-24T20:32:41.437Z,54.90
2017-07-24T20:35:08.455Z,54.20
2017-07-24T20:37:36.257Z,56.10
2017-07-24T20:40:03.296Z,56.00
2017-07-24T20:42:30.324Z,55.20
2017-07-24T20:44:58.129Z,58.40
2017-07-24T20:47:25.177Z,57.70
2017-07-24T20:49:52.217Z,57.60
2017-07-24T20:52:19.257Z,57.80
2017-07-24T20:54:46.297Z,56.90
2017-07-24T20:57:13.318Z,58.30
2017-07-24T20:59:40.340Z,59.00
2017-07-24T21:02:07.393Z,57.60
2017-07-24T21:04:34.494Z,58.40
2017-07-24T21:07:01.529Z,55.80
2017-07-24T21:09:29.328Z,58.40
2017-07-24T21:11:56.352Z,58.30
2017-07-24T21:14:24.153Z,59.00
2017-07-24T21:16:51.199Z,59.00
2017-07-24T21:19:18.233Z,59.40
2017-07-24T21:21:45.266Z,59.30
2017-07-24T21:24:12.321Z,58.10
2017-07-24T21:26:39.353Z,57.50
2017-07-24T21:29:07.154Z,57.60
2017-07-24T21:31:34.189Z,57.50
2017-07-24T21:34:01.224Z,58.10
2017-07-24T21:36:29.021Z,55.90
2017-07-24T21:38:56.165Z,55.90
2017-07-24T21:41:23.207Z,55.60
2017-07-24T21:43:50.241Z,55.90
2017-07-24T21:46:17.284Z,56.80
2017-07-24T21:48:45.090Z,56.60
2017-07-24T21:51:12.124Z,56.60
2017-07-24T21:53:39.167Z,56.70
2017-07-24T21:56:06.196Z,57.80
2017-07-24T21:58:33.992Z,58.20
2017-07-24T22:01:01.039Z,58.10
2017-07-24T22:03:28.080Z,58.10
2017-07-24T22:05:55.138Z,58.20
2017-07-24T22:08:22.180Z,57.30
2017-07-24T22:10:49.287Z,57.90
2017-07-24T22:13:18.170Z,58.30
2017-07-24T22:15:46.334Z,57.20
2017-07-24T22:18:13.381Z,57.10
2017-07-24T22:20:40.637Z,57.20
2017-07-24T22:23:07.829Z,56.90
2017-07-24T22:25:34.920Z,56.90
2017-07-24T22:28:02.085Z,56.80
2017-07-24T22:30:29.274Z,56.20
2017-07-24T22:32:56.440Z,56.80
2017-07-24T22:35:23.621Z,57.40
2017-07-24T22:37:50.836Z,58.10
2017-07-24T22:40:17.885Z,58.30
2017-07-24T22:42:47.477Z,58.70
2017-07-24T22:45:17.600Z,57.90
2017-07-24T22:47:47.145Z,57.20
2017-07-24T22:50:17.382Z,60.90
2017-07-24T22:52:47.447Z,60.80
2017-07-24T22:55:16.985Z,60.70
2017-07-24T22:57:45.910Z,61.80
2017-07-24T23:00:14.921Z,61.70
2017-07-24T23:02:43.494Z,61.90
2017-07-24T23:05:12.178Z,59.90
2017-07-24T23:07:40.576Z,58.50
2017-07-24T23:10:08.098Z,59.30
2017-07-24T23:12:38.172Z,59.20
2017-07-24T23:15:07.412Z,59.10
2017-07-24T23:17:36.570Z,61.40
2017-07-24T23:20:05.917Z,60.30
2017-07-24T23:22:35.631Z,59.60
2017-07-24T23:25:04.703Z,57.80
2017-07-24T23:27:33.204Z,57.50
2017-07-24T23:30:01.760Z,59.60
2017-07-24T23:32:28.800Z,58.50
2017-07-24T23:34:56.601Z,58.60
2017-07-24T23:37:23.649Z,58.40
2017-07-24T23:39:50.696Z,60.10
2017-07-24T23:42:17.728Z,59.90
2017-07-24T23:44:44.793Z,57.50
2017-07-24T23:47:11.832Z,58.20
2017-07-24T23:49:38.867Z,56.80
2017-07-24T23:52:06.693Z,57.30
2017-07-24T23:54:33.811Z,57.30
2017-07-24T23:57:00.875Z,57.70
2017-07-24T23:59:27.901Z,58.40
